This is the latest recevied weather packets stored in our database for station/object 9W2CHF-4. If no packets are shown the sender has not sent any weather packets the latest 10 day(s).
| Time | Temp. | Humidity | Pressure | Rain* | Wind** | Luminosity | Snow |
|---|---|---|---|---|---|---|---|
| 1777699406 | 33.33° C | 76% | 1010 hPa | - | - | - | - |
| 1777698506 | 33.89° C | 75% | 1010.3 hPa | - | - | - | - |
| 1777697606 | 33.33° C | 75% | 1010.6 hPa | - | - | - | - |
| 1777696706 | 33.33° C | 80% | 1010.9 hPa | - | - | - | - |
| 1777695805 | 32.78° C | 83% | 1011.2 hPa | - | - | - | - |
| 1777694905 | 32.78° C | 84% | 1011.4 hPa | - | - | - | - |
| 1777694005 | 32.78° C | 83% | 1011.5 hPa | - | - | - | - |
| 1777693105 | 33.33° C | 82% | 1011.8 hPa | - | - | - | - |
| 1777692205 | 32.78° C | 82% | 1011.7 hPa | - | - | - | - |
| 1777691304 | 32.78° C | 82% | 1011.5 hPa | - | - | - | - |
| 1777690404 | 33.33° C | 81% | 1011.5 hPa | - | - | - | - |
| 1777689504 | 32.78° C | 82% | 1011.4 hPa | - | - | - | - |
| 1777688604 | 32.78° C | 82% | 1011.5 hPa | - | - | - | - |
| 1777674203 | 31.67° C | 80% | 1009.1 hPa | - | - | - | - |
| 1777673303 | 31.67° C | 80% | 1008.9 hPa | - | - | - | - |
| 1777672403 | 31.67° C | 80% | 1008.7 hPa | - | - | - | - |
| 1777671503 | 31.67° C | 79% | 1008.7 hPa | - | - | - | - |
| 1777670602 | 31.67° C | 80% | 1008.6 hPa | - | - | - | - |
| 1777669706 | 31.67° C | 80% | 1008.7 hPa | - | - | - | - |
| 1777668809 | 31.67° C | 79% | 1008.9 hPa | - | - | - | - |
| 1777667908 | 31.67° C | 79% | 1008.9 hPa | - | - | - | - |
| 1777667007 | 32.22° C | 79% | 1009.1 hPa | - | - | - | - |
| 1777666107 | 32.22° C | 79% | 1009.2 hPa | - | - | - | - |
| 1777665207 | 32.22° C | 79% | 1009.2 hPa | - | - | - | - |
| 1777664307 | 32.22° C | 79% | 1009.5 hPa | - | - | - | - |
* Rain since midnight (hover to see other rain measurements)
** Current wind speed in m/s (hover to see current wind gust speed)